Time;durP1;ratioP1;P1;durP2;ratioP2;P2;SDS_P1;SDS_P2;PMS_P1;PMS_P2;Temp;Humidity;BMP_temperature;BMP_pressure;BME280_temperature;BME280_humidity;BME280_pressure;Samples;Min_cycle;Max_cycle;Signal;HPM_P1;HPM_P2
2023/04/18 00:02:21;;;;;;;23.43;14.07;;;7.00;99.90;;;;;;5031235;28;20204;-75
2023/04/18 00:04:49;;;;;;;21.53;13.20;;;7.00;99.90;;;;;;5031555;28;20538;-74
2023/04/18 00:07:16;;;;;;;20.93;12.93;;;7.00;99.90;;;;;;5030676;28;20226;-74
2023/04/18 00:09:42;;;;;;;21.97;13.37;;;6.90;99.90;;;;;;5030763;28;20629;-74
2023/04/18 00:12:09;;;;;;;20.53;13.33;;;6.90;99.90;;;;;;5028448;28;20683;-74
2023/04/18 00:14:36;;;;;;;22.07;14.10;;;6.90;99.90;;;;;;5032143;28;20274;-74
2023/04/18 00:17:09;;;;;;;22.23;13.47;;;6.80;99.90;;;;;;5031888;28;20208;-71
2023/04/18 00:19:36;;;;;;;25.87;14.93;;;6.90;99.90;;;;;;5025765;28;20226;-75
2023/04/18 00:22:02;;;;;;;21.80;13.93;;;6.90;99.90;;;;;;5027653;28;20188;-74
2023/04/18 00:24:27;;;;;;;24.20;13.70;;;6.80;99.90;;;;;;5031450;28;20173;-75
2023/04/18 00:26:53;;;;;;;24.07;14.13;;;6.80;99.90;;;;;;5025654;28;20207;-73
2023/04/18 00:29:18;;;;;;;22.30;13.43;;;6.70;99.90;;;;;;5028187;28;20695;-74
2023/04/18 00:31:44;;;;;;;24.77;15.30;;;6.80;99.90;;;;;;5030104;28;20258;-75
2023/04/18 00:34:10;;;;;;;21.03;14.33;;;6.80;99.90;;;;;;5030385;28;20650;-74
2023/04/18 00:36:35;;;;;;;25.70;15.13;;;6.70;99.90;;;;;;5032518;28;20168;-74
2023/04/18 00:39:01;;;;;;;24.30;15.27;;;6.70;99.90;;;;;;5028691;28;20216;-74
2023/04/18 00:41:28;;;;;;;25.50;14.73;;;6.70;99.90;;;;;;5029869;28;20666;-75
2023/04/18 00:43:54;;;;;;;25.77;15.00;;;6.70;99.90;;;;;;5020248;28;20212;-74
2023/04/18 00:46:20;;;;;;;22.50;14.70;;;6.70;99.90;;;;;;5031468;28;20208;-75
2023/04/18 00:48:46;;;;;;;24.47;14.60;;;6.70;99.90;;;;;;5031269;28;20212;-74
2023/04/18 00:51:12;;;;;;;26.47;15.13;;;6.80;99.90;;;;;;5026444;28;20250;-74
2023/04/18 00:53:40;;;;;;;26.03;15.00;;;6.90;99.90;;;;;;5030276;28;20679;-75
2023/04/18 00:56:06;;;;;;;27.50;15.43;;;6.90;99.90;;;;;;5029762;28;20287;-75
2023/04/18 00:58:32;;;;;;;27.17;15.57;;;6.90;99.90;;;;;;5030691;28;20219;-75
2023/04/18 01:00:57;;;;;;;21.93;13.60;;;7.00;99.90;;;;;;5028371;28;20242;-75
2023/04/18 01:03:24;;;;;;;25.43;14.73;;;7.00;99.90;;;;;;5029100;28;20207;-74
2023/04/18 01:05:51;;;;;;;22.00;13.63;;;6.90;99.90;;;;;;5028500;28;20248;-74
2023/04/18 01:08:20;;;;;;;20.70;13.10;;;6.90;99.90;;;;;;5029205;28;20600;-72
2023/04/18 01:10:46;;;;;;;22.23;13.83;;;6.80;99.90;;;;;;5028722;28;20231;-73
2023/04/18 01:13:13;;;;;;;17.90;12.27;;;6.90;99.90;;;;;;5029583;28;20180;-71
2023/04/18 01:15:41;;;;;;;20.33;12.57;;;7.00;99.90;;;;;;5031878;28;20215;-74
2023/04/18 01:18:07;;;;;;;23.37;13.70;;;7.00;99.90;;;;;;5029544;28;20223;-75
2023/04/18 01:20:35;;;;;;;21.07;13.63;;;7.00;99.90;;;;;;5025445;28;20215;-74
2023/04/18 01:23:02;;;;;;;21.23;13.13;;;7.10;99.90;;;;;;5029896;28;20244;-75
2023/04/18 01:25:27;;;;;;;23.43;13.90;;;7.00;99.90;;;;;;5031094;28;20238;-75
2023/04/18 01:27:53;;;;;;;20.30;12.47;;;6.90;99.90;;;;;;5038489;28;20663;-74
2023/04/18 01:30:19;;;;;;;21.73;13.43;;;6.90;99.90;;;;;;5028253;28;20216;-72
2023/04/18 01:32:45;;;;;;;23.03;13.97;;;6.90;99.90;;;;;;5029004;28;20262;-74
2023/04/18 01:35:10;;;;;;;22.57;13.13;;;7.00;99.90;;;;;;5023655;28;20291;-75
2023/04/18 01:37:36;;;;;;;20.83;13.70;;;7.00;99.90;;;;;;5027371;28;20258;-75
2023/04/18 01:40:02;;;;;;;22.43;13.97;;;7.00;99.90;;;;;;5026418;28;20212;-74
2023/04/18 01:42:29;;;;;;;19.73;12.80;;;7.00;99.90;;;;;;5031125;28;20647;-73
2023/04/18 01:44:54;;;;;;;22.07;13.00;;;6.90;99.90;;;;;;5029182;28;20216;-73
2023/04/18 01:47:20;;;;;;;23.00;13.63;;;6.80;99.90;;;;;;5030631;28;20211;-74
2023/04/18 01:49:47;;;;;;;21.67;13.00;;;6.80;99.90;;;;;;5029920;28;20266;-73
2023/04/18 01:52:13;;;;;;;21.20;12.50;;;6.90;99.90;;;;;;5026412;28;20185;-74
2023/04/18 01:54:39;;;;;;;19.20;12.17;;;6.90;99.90;;;;;;5029636;28;20279;-74
2023/04/18 01:57:05;;;;;;;20.37;12.07;;;6.90;99.90;;;;;;5027715;28;20223;-74
2023/04/18 01:59:31;;;;;;;23.27;13.07;;;6.90;99.90;;;;;;5029481;28;20208;-75
2023/04/18 02:01:57;;;;;;;19.37;11.63;;;6.90;99.90;;;;;;5028904;28;20697;-74
2023/04/18 02:04:23;;;;;;;20.33;12.60;;;6.80;99.90;;;;;;5030424;28;20650;-75
2023/04/18 02:06:48;;;;;;;20.47;12.10;;;6.90;99.90;;;;;;5029748;28;20272;-74
2023/04/18 02:09:14;;;;;;;18.73;11.77;;;6.90;99.90;;;;;;5023027;28;20694;-74
2023/04/18 02:11:39;;;;;;;19.13;11.90;;;6.90;99.90;;;;;;5026719;28;20667;-75
2023/04/18 02:14:05;;;;;;;19.00;11.83;;;7.00;99.90;;;;;;5023512;28;20212;-73
2023/04/18 02:16:31;;;;;;;18.33;12.23;;;6.90;99.90;;;;;;5027297;28;20305;-74
2023/04/18 02:18:56;;;;;;;18.53;12.50;;;6.90;99.90;;;;;;5028337;28;20262;-74
2023/04/18 02:21:23;;;;;;;18.30;11.90;;;6.90;99.90;;;;;;5018511;28;20169;-74
2023/04/18 02:23:48;;;;;;;19.50;11.87;;;6.90;99.90;;;;;;5029815;28;20587;-74
2023/04/18 02:26:14;;;;;;;17.03;10.77;;;6.80;99.90;;;;;;5029052;28;20204;-74
2023/04/18 02:28:40;;;;;;;18.73;11.80;;;6.80;99.90;;;;;;5027459;28;20210;-74
2023/04/18 02:31:06;;;;;;;18.57;11.43;;;6.70;99.90;;;;;;5028556;28;20705;-73
2023/04/18 02:33:32;;;;;;;20.30;11.93;;;6.80;99.90;;;;;;5029464;28;20173;-74
2023/04/18 02:35:57;;;;;;;16.73;11.33;;;6.80;99.90;;;;;;5028457;28;20204;-74
2023/04/18 02:38:23;;;;;;;16.97;11.53;;;6.70;99.90;;;;;;5028467;28;20578;-74
2023/04/18 02:40:49;;;;;;;18.20;11.30;;;6.70;99.90;;;;;;5029471;28;20287;-73
2023/04/18 02:43:14;;;;;;;17.20;11.77;;;6.80;99.90;;;;;;5030049;28;20218;-73
2023/04/18 02:45:40;;;;;;;17.20;11.70;;;6.70;99.90;;;;;;5023311;28;20648;-75
2023/04/18 02:48:05;;;;;;;18.90;11.63;;;6.70;99.90;;;;;;5028744;28;20209;-74
2023/04/18 02:50:31;;;;;;;18.63;11.07;;;6.60;99.90;;;;;;5025945;28;20220;-75
2023/04/18 02:52:57;;;;;;;18.50;12.10;;;6.70;99.90;;;;;;5023565;28;20311;-72
2023/04/18 02:55:23;;;;;;;18.07;12.00;;;6.70;99.90;;;;;;5028105;28;20212;-74
2023/04/18 02:57:48;;;;;;;16.90;11.50;;;6.60;99.90;;;;;;5025649;28;20187;-71
2023/04/18 03:00:14;;;;;;;18.30;11.50;;;6.70;99.90;;;;;;5029975;28;20223;-74
2023/04/18 03:02:40;;;;;;;20.77;12.03;;;6.70;99.90;;;;;;5027923;28;20776;-74
2023/04/18 03:05:06;;;;;;;16.80;11.23;;;6.70;99.90;;;;;;5027466;28;20226;-75
2023/04/18 03:07:32;;;;;;;17.40;12.10;;;6.70;99.90;;;;;;5033441;28;20265;-74
2023/04/18 03:09:58;;;;;;;17.27;10.73;;;6.60;99.90;;;;;;5032916;28;20718;-74
2023/04/18 03:12:24;;;;;;;16.53;10.97;;;6.60;99.90;;;;;;5031289;28;20654;-74
2023/04/18 03:14:50;;;;;;;18.07;11.57;;;6.60;99.90;;;;;;5032064;28;20208;-72
2023/04/18 03:17:16;;;;;;;18.30;11.07;;;6.60;99.90;;;;;;5033284;28;20232;-73
2023/04/18 03:19:41;;;;;;;18.70;12.20;;;6.60;99.90;;;;;;5033417;28;20592;-74
2023/04/18 03:22:08;;;;;;;20.53;12.40;;;6.60;99.90;;;;;;5032139;28;20180;-75
2023/04/18 03:24:33;;;;;;;18.67;12.50;;;6.60;99.90;;;;;;5029661;28;20201;-75
2023/04/18 03:26:59;;;;;;;20.97;12.43;;;6.70;99.90;;;;;;5028858;28;20254;-73
2023/04/18 03:29:25;;;;;;;19.83;11.93;;;6.70;99.90;;;;;;5032979;28;20266;-75
2023/04/18 03:31:50;;;;;;;20.07;11.80;;;6.70;99.90;;;;;;5029336;28;20227;-73
2023/04/18 03:34:16;;;;;;;21.13;12.50;;;6.80;99.90;;;;;;5033142;28;20216;-73
2023/04/18 03:36:41;;;;;;;18.13;11.17;;;6.80;99.90;;;;;;5031957;28;20647;-72
2023/04/18 03:39:07;;;;;;;16.07;10.67;;;6.80;99.90;;;;;;5032307;28;20208;-75
2023/04/18 03:41:33;;;;;;;18.83;12.10;;;6.80;99.90;;;;;;5032271;28;20209;-75
2023/04/18 03:43:58;;;;;;;14.80;10.73;;;6.70;99.90;;;;;;5030443;28;20274;-75
2023/04/18 03:46:24;;;;;;;15.67;10.70;;;6.70;99.90;;;;;;5031276;28;20215;-75
2023/04/18 03:48:49;;;;;;;17.57;11.63;;;6.70;99.90;;;;;;5032013;28;20234;-75
2023/04/18 03:51:15;;;;;;;16.90;10.73;;;6.70;99.90;;;;;;5032697;28;20301;-73
2023/04/18 03:53:41;;;;;;;21.10;11.30;;;6.70;99.90;;;;;;5033168;28;20233;-75
2023/04/18 03:56:07;;;;;;;18.57;10.63;;;6.70;99.90;;;;;;5032336;28;20212;-73
2023/04/18 03:58:32;;;;;;;20.83;11.77;;;6.60;99.90;;;;;;5029820;28;20406;-75
2023/04/18 04:00:59;;;;;;;20.27;11.30;;;6.60;99.90;;;;;;5032208;28;20275;-74
2023/04/18 04:03:26;;;;;;;15.97;11.00;;;6.70;99.90;;;;;;5029038;28;20173;-74
2023/04/18 04:05:53;;;;;;;16.23;10.57;;;6.70;99.90;;;;;;5031990;28;20205;-74
2023/04/18 04:08:20;;;;;;;19.40;12.20;;;6.70;99.90;;;;;;5028596;28;20196;-75
2023/04/18 04:10:45;;;;;;;17.57;11.93;;;6.70;99.90;;;;;;5027612;28;20252;-75
2023/04/18 04:13:11;;;;;;;25.53;11.93;;;6.70;99.90;;;;;;5028260;28;20254;-73
2023/04/18 04:15:37;;;;;;;17.10;11.17;;;6.60;99.90;;;;;;5031304;28;20259;-75
2023/04/18 04:18:04;;;;;;;17.73;11.67;;;6.60;99.90;;;;;;5029293;28;20204;-74
2023/04/18 04:20:30;;;;;;;19.60;11.60;;;6.60;99.90;;;;;;5028487;28;20219;-75
2023/04/18 04:22:57;;;;;;;19.20;12.47;;;6.60;99.90;;;;;;5030174;28;20220;-73
2023/04/18 04:25:27;;;;;;;20.10;12.40;;;6.70;99.90;;;;;;5028996;28;20213;-73
2023/04/18 04:27:53;;;;;;;16.83;12.03;;;6.70;99.90;;;;;;5031108;28;20184;-75
2023/04/18 04:30:20;;;;;;;18.40;11.27;;;6.60;99.90;;;;;;5029491;28;20691;-73
2023/04/18 04:32:46;;;;;;;19.37;11.53;;;6.60;99.90;;;;;;5029703;28;20270;-75
2023/04/18 04:35:12;;;;;;;19.87;11.63;;;6.90;99.90;;;;;;5029668;28;20204;-73
2023/04/18 04:37:40;;;;;;;17.97;11.90;;;7.20;99.90;;;;;;5030318;28;20212;-76
2023/04/18 04:40:08;;;;;;;18.07;11.47;;;7.40;99.90;;;;;;5031675;28;20751;-76
2023/04/18 04:42:34;;;;;;;19.30;12.13;;;7.50;99.90;;;;;;5028392;28;20192;-77
2023/04/18 04:45:01;;;;;;;20.23;11.23;;;7.60;99.90;;;;;;5025837;28;20690;-75
2023/04/18 04:47:27;;;;;;;18.67;11.50;;;8.10;99.90;;;;;;5027818;28;20205;-75
2023/04/18 04:49:53;;;;;;;14.07;10.13;;;8.80;99.90;;;;;;5024969;28;20331;-75
2023/04/18 04:52:18;;;;;;;18.03;11.43;;;9.60;99.90;;;;;;5025478;28;20212;-75
2023/04/18 04:54:45;;;;;;;14.43;10.33;;;10.10;99.90;;;;;;5026849;28;20211;-74
2023/04/18 04:57:11;;;;;;;16.80;9.77;;;10.10;99.90;;;;;;5028748;28;20204;-74
2023/04/18 04:59:37;;;;;;;14.13;9.87;;;10.60;99.90;;;;;;5025838;28;20200;-75
2023/04/18 05:02:02;;;;;;;17.40;10.65;;;10.80;99.90;;;;;;5031243;28;20262;-74
2023/04/18 05:04:28;;;;;;;16.17;10.85;;;11.20;99.90;;;;;;5030028;28;20295;-74
2023/04/18 05:06:53;;;;;;;14.13;9.48;;;11.60;99.90;;;;;;5029033;28;20185;-72
2023/04/18 05:09:19;;;;;;;14.68;10.30;;;11.90;99.90;;;;;;5029772;28;20719;-75
2023/04/18 05:11:48;;;;;;;14.02;9.75;;;11.60;99.90;;;;;;5029967;28;20208;-75
2023/04/18 05:14:14;;;;;;;15.00;10.20;;;11.60;99.90;;;;;;5030500;28;20212;-75
2023/04/18 05:16:40;;;;;;;12.80;10.40;;;11.30;99.90;;;;;;5029418;28;20200;-75
2023/04/18 05:19:06;;;;;;;13.50;10.00;;;11.50;99.90;;;;;;5037758;28;20246;-76
2023/04/18 05:21:31;;;;;;;15.45;10.48;;;11.90;99.90;;;;;;5025094;28;20176;-75
2023/04/18 05:23:57;;;;;;;13.23;9.50;;;12.20;99.90;;;;;;5026974;28;20682;-73
2023/04/18 05:26:23;;;;;;;13.63;8.65;;;12.60;99.90;;;;;;5023044;28;20215;-75
2023/04/18 05:28:49;;;;;;;14.38;10.15;;;12.80;99.90;;;;;;5022365;28;20216;-75
2023/04/18 05:31:14;;;;;;;13.63;9.85;;;13.30;99.90;;;;;;5025426;28;20265;-75
2023/04/18 05:33:40;;;;;;;13.40;9.95;;;13.60;99.90;;;;;;5025882;28;20549;-75
2023/04/18 05:36:06;;;;;;;17.33;10.30;;;13.60;99.90;;;;;;5027105;28;20208;-76
2023/04/18 05:38:32;;;;;;;13.68;10.23;;;12.40;99.90;;;;;;5027893;28;20206;-74
2023/04/18 05:40:59;;;;;;;16.17;10.95;;;11.50;99.90;;;;;;5027457;28;20690;-74
2023/04/18 05:43:25;;;;;;;12.73;9.35;;;10.90;99.90;;;;;;5027563;28;20810;-75
2023/04/18 05:45:53;;;;;;;15.98;10.57;;;11.30;99.90;;;;;;5029947;28;20267;-73
2023/04/18 05:48:20;;;;;;;13.05;9.88;;;12.00;99.90;;;;;;5030205;28;20273;-76
2023/04/18 05:50:46;;;;;;;12.18;9.57;;;13.10;99.90;;;;;;5029133;28;20224;-75
2023/04/18 05:53:11;;;;;;;13.07;9.95;;;13.70;99.90;;;;;;5027289;28;20262;-76
2023/04/18 05:55:39;;;;;;;14.43;9.82;;;14.40;99.90;;;;;;5030250;28;20246;-76
2023/04/18 05:58:05;;;;;;;13.48;9.57;;;14.60;99.90;;;;;;5029068;28;20215;-76
2023/04/18 06:00:30;;;;;;;14.45;10.13;;;14.70;99.90;;;;;;5019940;28;20220;-76
2023/04/18 06:02:56;;;;;;;12.73;9.98;;;15.30;99.90;;;;;;5017813;28;20219;-75
2023/04/18 06:05:22;;;;;;;13.00;9.38;;;15.40;99.90;;;;;;5027108;28;20258;-75
2023/04/18 06:07:48;;;;;;;13.48;9.80;;;14.90;99.90;;;;;;5011160;28;20777;-75
2023/04/18 06:10:14;;;;;;;11.68;9.30;;;14.90;99.90;;;;;;5028307;28;20243;-76
2023/04/18 06:12:40;;;;;;;13.18;10.63;;;14.00;99.90;;;;;;5029667;28;20192;-75
2023/04/18 06:15:06;;;;;;;13.48;9.60;;;13.10;99.90;;;;;;5030333;28;20208;-74
2023/04/18 06:17:33;;;;;;;13.18;9.63;;;11.80;99.90;;;;;;5030067;28;20754;-75
2023/04/18 06:19:59;;;;;;;17.73;10.73;;;11.50;99.90;;;;;;5028435;28;20306;-74
2023/04/18 06:22:25;;;;;;;15.60;10.20;;;11.30;99.90;;;;;;5028682;28;20287;-75
2023/04/18 06:24:50;;;;;;;14.00;10.73;;;10.90;99.90;;;;;;5028418;28;20187;-75
2023/04/18 06:27:16;;;;;;;14.68;9.98;;;10.60;99.90;;;;;;5026208;28;20236;-74
2023/04/18 06:29:42;;;;;;;14.88;9.90;;;10.50;99.90;;;;;;5030142;28;20616;-74
2023/04/18 06:32:08;;;;;;;13.63;9.57;;;10.20;99.90;;;;;;5029985;28;20239;-75
2023/04/18 06:34:34;;;;;;;16.38;10.75;;;9.80;99.90;;;;;;5030149;28;20235;-75
2023/04/18 06:36:59;;;;;;;17.37;10.60;;;9.70;99.90;;;;;;5030027;28;20250;-76
2023/04/18 06:39:26;;;;;;;17.87;10.97;;;9.30;99.90;;;;;;5024652;28;20694;-76
2023/04/18 06:41:52;;;;;;;13.87;9.97;;;9.30;99.90;;;;;;5030544;28;20706;-75
2023/04/18 06:44:18;;;;;;;14.80;10.10;;;9.30;99.90;;;;;;5030467;28;20219;-75
2023/04/18 06:46:43;;;;;;;15.33;10.40;;;9.30;99.90;;;;;;5030694;28;20618;-73
2023/04/18 06:49:09;;;;;;;16.37;10.00;;;9.40;99.90;;;;;;5021521;28;20230;-75
2023/04/18 06:51:35;;;;;;;17.67;10.47;;;9.60;99.90;;;;;;5028436;28;20180;-75
2023/04/18 06:54:00;;;;;;;15.30;10.60;;;9.50;99.90;;;;;;5032765;28;20228;-73
2023/04/18 06:56:26;;;;;;;13.10;10.00;;;9.70;99.90;;;;;;5033169;28;20208;-74
2023/04/18 06:58:51;;;;;;;15.47;10.17;;;9.60;99.90;;;;;;5031859;28;20223;-75
2023/04/18 07:01:18;;;;;;;16.80;9.10;;;9.50;99.90;;;;;;5033199;28;20572;-75
2023/04/18 07:03:43;;;;;;;13.93;9.83;;;9.60;99.90;;;;;;5031660;28;20172;-73
2023/04/18 07:06:09;;;;;;;15.97;10.13;;;9.30;99.90;;;;;;5030511;28;20760;-75
2023/04/18 07:08:36;;;;;;;13.63;9.37;;;9.00;99.90;;;;;;5032584;28;20220;-74
2023/04/18 07:11:01;;;;;;;13.40;9.20;;;9.00;99.90;;;;;;5029083;28;20270;-75
2023/04/18 07:13:27;;;;;;;13.73;9.70;;;9.10;99.90;;;;;;5047936;28;20294;-75
2023/04/18 07:15:53;;;;;;;14.43;9.47;;;9.20;99.90;;;;;;5029966;28;20176;-73
2023/04/18 07:18:18;;;;;;;15.47;10.13;;;9.20;99.90;;;;;;5029052;28;20748;-74
2023/04/18 07:20:44;;;;;;;15.40;10.03;;;9.40;99.90;;;;;;5031942;28;20214;-75
2023/04/18 07:23:10;;;;;;;19.20;9.57;;;9.70;99.90;;;;;;5027435;28;20208;-75
2023/04/18 07:25:37;;;;;;;13.17;9.00;;;10.50;99.90;;;;;;5027231;28;20200;-74
2023/04/18 07:28:02;;;;;;;12.77;8.18;;;12.40;99.90;;;;;;5030455;28;20176;-74
2023/04/18 07:30:28;;;;;;;11.48;7.85;;;13.60;99.90;;;;;;5028035;28;20565;-76
2023/04/18 07:32:53;;;;;;;10.75;7.97;;;14.90;99.90;;;;;;5030926;28;20211;-76
2023/04/18 07:35:19;;;;;;;10.05;8.50;;;15.80;99.90;;;;;;5028916;28;20204;-75
2023/04/18 07:37:45;;;;;;;15.10;9.05;;;16.20;99.90;;;;;;5028482;28;20262;-74
2023/04/18 07:40:11;;;;;;;13.45;8.57;;;16.20;99.90;;;;;;5030450;28;20207;-75
2023/04/18 07:42:37;;;;;;;11.82;8.23;;;17.10;99.90;;;;;;5032068;28;20177;-76
2023/04/18 07:45:03;;;;;;;12.25;8.23;;;18.10;99.90;;;;;;5030926;28;20232;-76
2023/04/18 07:47:28;;;;;;;15.68;11.35;;;18.40;99.90;;;;;;5031072;28;20227;-75
2023/04/18 07:49:55;;;;;;;11.35;8.32;;;18.70;99.90;;;;;;5027606;28;20221;-75
2023/04/18 07:52:20;;;;;;;10.68;8.27;;;19.30;99.90;;;;;;5032119;28;20615;-75
2023/04/18 07:54:46;;;;;;;11.63;8.90;;;18.40;99.90;;;;;;5033351;28;20283;-76
2023/04/18 07:57:12;;;;;;;11.15;9.10;;;18.40;99.90;;;;;;5027714;28;20208;-75
2023/04/18 07:59:37;;;;;;;12.88;9.80;;;18.10;99.90;;;;;;5024649;28;20295;-74
2023/04/18 08:02:03;;;;;;;11.98;8.43;;;16.40;99.90;;;;;;5031322;28;20208;-73
2023/04/18 08:04:29;;;;;;;11.45;8.75;;;16.80;99.90;;;;;;5031102;28;20770;-76
2023/04/18 08:06:55;;;;;;;13.82;8.98;;;16.30;99.90;;;;;;5031817;28;20185;-75
2023/04/18 08:09:20;;;;;;;12.23;9.02;;;15.00;99.90;;;;;;5025186;28;20744;-75
2023/04/18 08:11:46;;;;;;;15.75;10.80;;;13.80;99.90;;;;;;5030237;28;20265;-73
2023/04/18 08:14:12;;;;;;;13.43;9.52;;;12.80;99.90;;;;;;5029567;28;20212;-75
2023/04/18 08:16:38;;;;;;;12.40;8.70;;;12.10;99.90;;;;;;5030392;28;20239;-75
2023/04/18 08:19:04;;;;;;;13.25;8.75;;;11.60;99.90;;;;;;5023788;28;20193;-74
2023/04/18 08:21:31;;;;;;;12.70;9.02;;;11.20;99.90;;;;;;5031330;28;20190;-75
2023/04/18 08:23:56;;;;;;;16.17;10.10;;;10.90;99.90;;;;;;5031473;28;20212;-73
2023/04/18 08:26:22;;;;;;;13.00;9.38;;;11.10;99.90;;;;;;5031399;28;20212;-75
2023/04/18 08:28:48;;;;;;;14.52;10.20;;;11.30;99.90;;;;;;5031741;28;20776;-77
2023/04/18 08:31:14;;;;;;;16.88;9.73;;;11.10;99.90;;;;;;5030755;28;20215;-75
2023/04/18 08:33:40;;;;;;;12.13;8.60;;;11.20;99.90;;;;;;5032827;28;20663;-76
2023/04/18 08:36:06;;;;;;;14.93;10.07;;;11.30;99.90;;;;;;5028397;28;20216;-75
2023/04/18 08:38:31;;;;;;;13.43;9.10;;;11.30;99.90;;;;;;5026835;28;20758;-76
2023/04/18 08:40:57;;;;;;;18.20;9.97;;;11.30;99.90;;;;;;5024906;28;20208;-76
2023/04/18 08:43:24;;;;;;;13.88;9.73;;;11.30;99.90;;;;;;5026437;28;20582;-76
2023/04/18 08:45:51;;;;;;;14.20;10.03;;;11.30;99.90;;;;;;5031896;28;20186;-75
2023/04/18 08:48:17;;;;;;;13.93;10.20;;;11.40;99.90;;;;;;5029078;28;20204;-74
2023/04/18 08:50:44;;;;;;;12.23;9.70;;;11.10;99.90;;;;;;5031347;28;20216;-75
2023/04/18 08:53:10;;;;;;;15.10;10.17;;;11.20;99.90;;;;;;5029746;28;20207;-73
2023/04/18 08:55:36;;;;;;;16.07;9.83;;;11.10;99.90;;;;;;5031884;28;20678;-75
2023/04/18 08:58:04;;;;;;;13.77;9.80;;;10.70;99.90;;;;;;5028614;28;20631;-75
2023/04/18 09:00:29;;;;;;;15.33;9.23;;;10.40;99.90;;;;;;5028530;28;20686;-75
2023/04/18 09:02:55;;;;;;;15.03;9.77;;;10.60;99.90;;;;;;5028665;28;20216;-74
2023/04/18 09:05:23;;;;;;;20.30;10.53;;;10.50;99.90;;;;;;5029513;28;20212;-75
2023/04/18 09:07:51;;;;;;;17.97;11.20;;;10.70;99.90;;;;;;5025230;28;20227;-75
2023/04/18 09:10:43;;;;;;;13.30;10.63;;;10.80;99.90;;;;;;5029639;28;20617;-74
2023/04/18 09:13:10;;;;;;;12.87;10.10;;;11.00;99.90;;;;;;5042362;28;20647;-74
2023/04/18 09:15:35;;;;;;;13.43;9.40;;;10.90;99.90;;;;;;5024751;28;20727;-74
2023/04/18 09:18:01;;;;;;;12.93;9.40;;;11.10;99.90;;;;;;5027720;28;20296;-73
2023/04/18 09:20:38;;;;;;;12.67;8.70;;;11.30;99.90;;;;;;5031028;28;20212;-74
2023/04/18 09:23:09;;;;;;;15.30;9.77;;;11.70;99.90;;;;;;5025325;28;20204;-72
2023/04/18 09:25:45;;;;;;;13.80;9.82;;;11.90;99.90;;;;;;5025703;28;20630;-75
2023/04/18 09:28:28;;;;;;;15.65;9.93;;;11.90;99.90;;;;;;5028454;28;20172;-75
2023/04/18 09:30:56;;;;;;;16.58;9.80;;;11.80;99.90;;;;;;5026572;28;20235;-73
2023/04/18 09:33:35;;;;;;;17.08;9.88;;;11.90;99.90;;;;;;5029714;28;20207;-74
2023/04/18 09:36:20;;;;;;;17.85;9.80;;;12.00;99.90;;;;;;5027514;28;20679;-75
2023/04/18 09:38:50;;;;;;;14.00;9.07;;;12.20;99.90;;;;;;5024463;28;20238;-73
2023/04/18 09:41:16;;;;;;;12.18;8.55;;;12.50;99.90;;;;;;5030655;28;20209;-73
2023/04/18 09:43:43;;;;;;;11.32;8.82;;;12.70;99.90;;;;;;5024220;28;20211;-74
2023/04/18 09:46:09;;;;;;;12.05;8.68;;;12.80;99.90;;;;;;5030375;28;20180;-74
2023/04/18 09:48:35;;;;;;;12.98;8.55;;;12.80;99.90;;;;;;5029446;28;20596;-75
2023/04/18 09:51:05;;;;;;;11.18;7.95;;;13.10;99.90;;;;;;5030710;28;20216;-75
2023/04/18 09:53:31;;;;;;;13.02;8.88;;;13.20;99.90;;;;;;5027301;28;20208;-73
2023/04/18 09:55:57;;;;;;;12.63;8.90;;;13.10;99.90;;;;;;5025376;28;20204;-75
2023/04/18 09:58:28;;;;;;;12.10;9.05;;;13.30;99.90;;;;;;5028682;28;20227;-75
2023/04/18 10:00:54;;;;;;;15.38;9.23;;;13.30;99.90;;;;;;5029558;28;20238;-73
2023/04/18 10:03:25;;;;;;;10.77;8.55;;;13.20;99.90;;;;;;5030283;28;20219;-75
2023/04/18 10:05:51;;;;;;;12.52;8.80;;;13.40;99.90;;;;;;5029305;28;20295;-75
2023/04/18 10:08:17;;;;;;;14.90;8.90;;;13.40;99.90;;;;;;5030117;28;20782;-74
2023/04/18 10:10:43;;;;;;;11.32;9.02;;;13.00;99.90;;;;;;5028471;28;20312;-75
2023/04/18 10:13:12;;;;;;;12.30;8.80;;;13.00;99.90;;;;;;5027180;28;20215;-75
2023/04/18 10:15:38;;;;;;;13.32;9.48;;;13.00;99.90;;;;;;5029674;28;20176;-75
2023/04/18 10:18:14;;;;;;;13.25;9.25;;;12.90;99.90;;;;;;5027968;28;20693;-75
2023/04/18 10:20:40;;;;;;;12.35;8.77;;;12.70;99.90;;;;;;5029745;28;20214;-75
2023/04/18 10:23:42;;;;;;;14.60;10.13;;;12.80;99.90;;;;;;5028720;28;20671;-75
2023/04/18 10:26:09;;;;;;;13.23;9.15;;;12.90;99.90;;;;;;5048050;28;20202;-75
2023/04/18 10:28:55;;;;;;;12.70;8.80;;;13.20;99.90;;;;;;5028279;28;20200;-75
2023/04/18 10:31:26;;;;;;;11.50;8.73;;;13.50;99.90;;;;;;5028462;28;20570;-75
2023/04/18 10:33:57;;;;;;;14.32;9.20;;;13.40;99.90;;;;;;5029335;28;20184;-75
2023/04/18 10:36:23;;;;;;;11.10;9.10;;;13.40;99.90;;;;;;5025137;28;20208;-75
2023/04/18 10:38:53;;;;;;;10.52;8.60;;;13.30;99.90;;;;;;5023145;28;20355;-76
2023/04/18 10:41:22;;;;;;;14.32;9.20;;;13.40;99.90;;;;;;5025424;28;20218;-75
2023/04/18 10:44:06;;;;;;;10.82;8.77;;;13.60;99.90;;;;;;5024133;28;20208;-74
2023/04/18 10:46:36;;;;;;;14.00;8.40;;;13.80;99.90;;;;;;5030056;28;20219;-75
2023/04/18 10:49:15;;;;;;;12.35;8.55;;;13.70;99.90;;;;;;5028786;28;20756;-74
2023/04/18 10:51:43;;;;;;;11.43;8.40;;;13.80;99.90;;;;;;5039281;28;20286;-75
2023/04/18 10:54:16;;;;;;;10.50;8.35;;;13.70;99.90;;;;;;5030051;28;20203;-76
2023/04/18 10:56:55;;;;;;;11.38;8.15;;;13.60;99.90;;;;;;5028659;28;20201;-75
2023/04/18 10:59:25;;;;;;;12.45;9.05;;;13.70;99.90;;;;;;5027075;28;20214;-75
2023/04/18 11:02:18;;;;;;;11.23;8.57;;;13.80;99.90;;;;;;5029038;28;20627;-74
2023/04/18 11:04:50;;;;;;;12.63;9.02;;;13.60;99.90;;;;;;5029889;28;20238;-73
2023/04/18 11:07:15;;;;;;;22.77;9.95;;;13.50;99.90;;;;;;5030330;28;20176;-73
2023/04/18 11:09:50;;;;;;;17.88;9.52;;;13.50;99.90;;;;;;5041938;28;20200;-74
2023/04/18 11:12:15;;;;;;;13.63;9.45;;;13.70;99.90;;;;;;5023386;28;20212;-73
2023/04/18 11:14:41;;;;;;;14.55;8.68;;;13.50;99.90;;;;;;5029824;28;20207;-75
2023/04/18 11:17:25;;;;;;;14.07;9.00;;;13.50;99.90;;;;;;5028549;28;20231;-75
2023/04/18 11:19:59;;;;;;;11.85;8.25;;;13.80;99.90;;;;;;5040776;28;20212;-75
2023/04/18 11:22:25;;;;;;;13.90;8.63;;;13.80;99.90;;;;;;5029496;28;20222;-74
2023/04/18 11:24:51;;;;;;;12.57;8.48;;;13.80;99.90;;;;;;5031299;28;20191;-74
2023/04/18 11:27:17;;;;;;;13.25;8.48;;;13.60;99.90;;;;;;5029832;28;20213;-72
2023/04/18 11:29:43;;;;;;;12.35;8.45;;;13.70;99.90;;;;;;5031833;28;20273;-75
2023/04/18 11:32:09;;;;;;;13.45;8.95;;;13.70;99.90;;;;;;5033207;28;20619;-75
2023/04/18 11:34:35;;;;;;;12.05;8.70;;;13.70;99.90;;;;;;5033154;28;20306;-75
2023/04/18 11:37:04;;;;;;;14.27;8.65;;;13.70;99.90;;;;;;5032003;28;20184;-75
2023/04/18 11:39:35;;;;;;;13.93;9.02;;;13.70;99.90;;;;;;5033523;28;20196;-74
2023/04/18 11:42:00;;;;;;;12.02;8.40;;;13.80;99.90;;;;;;5032077;28;20250;-75
2023/04/18 11:44:26;;;;;;;18.58;9.82;;;13.90;99.90;;;;;;5031732;28;20297;-75
2023/04/18 11:46:55;;;;;;;10.60;8.25;;;13.90;99.90;;;;;;5029835;28;20213;-75
2023/04/18 11:49:28;;;;;;;14.60;7.72;;;13.70;99.90;;;;;;5031058;28;20690;-74
2023/04/18 11:51:54;;;;;;;12.50;8.52;;;13.90;99.90;;;;;;5030147;28;20561;-74
2023/04/18 11:54:39;;;;;;;11.82;8.50;;;14.00;99.90;;;;;;5032997;28;20291;-73
2023/04/18 11:57:06;;;;;;;10.90;8.63;;;14.00;99.90;;;;;;5028355;28;20211;-75
2023/04/18 11:59:32;;;;;;;10.98;7.95;;;14.10;99.90;;;;;;5032754;28;20223;-75
2023/04/18 12:02:02;;;;;;;11.27;8.38;;;14.10;99.90;;;;;;5032811;28;20709;-75
2023/04/18 12:04:28;;;;;;;13.60;9.00;;;14.00;99.90;;;;;;5028995;28;20571;-74
2023/04/18 12:06:54;;;;;;;11.23;8.27;;;14.00;99.90;;;;;;5031961;28;20199;-75
2023/04/18 12:09:21;;;;;;;12.90;8.68;;;13.80;99.90;;;;;;5029623;28;20220;-73
2023/04/18 12:12:01;;;;;;;11.18;7.93;;;13.80;99.90;;;;;;5031061;28;20211;-75
2023/04/18 12:14:27;;;;;;;11.60;8.48;;;13.90;99.90;;;;;;5031568;28;20730;-75
2023/04/18 12:16:53;;;;;;;11.07;8.30;;;13.90;99.90;;;;;;5031834;28;20227;-75
2023/04/18 12:19:19;;;;;;;14.68;9.70;;;13.70;99.90;;;;;;5032530;28;20584;-75
2023/04/18 12:22:06;;;;;;;14.30;8.68;;;13.60;99.90;;;;;;5031961;28;20222;-75
2023/04/18 12:24:32;;;;;;;14.57;10.15;;;13.80;99.90;;;;;;5034197;28;20266;-75
2023/04/18 12:26:58;;;;;;;15.82;11.02;;;13.90;99.90;;;;;;5030135;28;20204;-75
2023/04/18 12:29:27;;;;;;;15.23;9.55;;;13.90;99.90;;;;;;5032705;28;20586;-75
2023/04/18 12:31:52;;;;;;;13.98;9.75;;;14.00;99.90;;;;;;5032047;28;20211;-75
2023/04/18 12:34:18;;;;;;;17.05;9.95;;;14.00;99.90;;;;;;5032638;28;20208;-75
2023/04/18 12:36:44;;;;;;;13.50;9.70;;;13.90;99.90;;;;;;5028811;28;20181;-74